sensor_id;sensor_type;location;lat;lon;timestamp;P1;durP1;ratioP1;P2;durP2;ratioP2
59072;SDS011;44859;51.934;15.554;2023-09-19T00:01:08;6.00;;;2.10;;
59072;SDS011;44859;51.934;15.554;2023-09-19T00:03:58;4.30;;;1.70;;
59072;SDS011;44859;51.934;15.554;2023-09-19T00:07:02;6.20;;;1.90;;
59072;SDS011;44859;51.934;15.554;2023-09-19T00:12:58;6.30;;;2.00;;
59072;SDS011;44859;51.934;15.554;2023-09-19T00:15:39;10.20;;;3.30;;
59072;SDS011;44859;51.934;15.554;2023-09-19T00:18:25;5.00;;;2.30;;
59072;SDS011;44859;51.934;15.554;2023-09-19T00:21:03;4.00;;;2.10;;
59072;SDS011;44859;51.934;15.554;2023-09-19T00:23:47;5.10;;;2.10;;
59072;SDS011;44859;51.934;15.554;2023-09-19T00:26:33;6.80;;;2.80;;
59072;SDS011;44859;51.934;15.554;2023-09-19T00:32:19;7.60;;;2.80;;
59072;SDS011;44859;51.934;15.554;2023-09-19T00:38:56;7.40;;;3.90;;
59072;SDS011;44859;51.934;15.554;2023-09-19T00:42:35;8.70;;;4.10;;
59072;SDS011;44859;51.934;15.554;2023-09-19T00:44:51;11.00;;;4.50;;
59072;SDS011;44859;51.934;15.554;2023-09-19T00:48:14;11.00;;;5.10;;
59072;SDS011;44859;51.934;15.554;2023-09-19T00:51:04;10.00;;;5.00;;
59072;SDS011;44859;51.934;15.554;2023-09-19T00:53:58;12.30;;;6.10;;
59072;SDS011;44859;51.934;15.554;2023-09-19T01:00:00;13.50;;;5.80;;
59072;SDS011;44859;51.934;15.554;2023-09-19T01:05:22;14.30;;;6.10;;
59072;SDS011;44859;51.934;15.554;2023-09-19T01:07:53;16.70;;;5.80;;
59072;SDS011;44859;51.934;15.554;2023-09-19T01:10:39;15.10;;;5.80;;
59072;SDS011;44859;51.934;15.554;2023-09-19T01:14:02;13.00;;;5.50;;
59072;SDS011;44859;51.934;15.554;2023-09-19T01:19:54;12.90;;;5.40;;
59072;SDS011;44859;51.934;15.554;2023-09-19T01:23:11;10.30;;;5.00;;
59072;SDS011;44859;51.934;15.554;2023-09-19T01:26:39;10.20;;;4.70;;
59072;SDS011;44859;51.934;15.554;2023-09-19T01:29:37;10.90;;;4.60;;
59072;SDS011;44859;51.934;15.554;2023-09-19T01:32:27;9.50;;;4.30;;
59072;SDS011;44859;51.934;15.554;2023-09-19T01:35:02;9.60;;;4.30;;
59072;SDS011;44859;51.934;15.554;2023-09-19T01:37:44;10.40;;;4.60;;
59072;SDS011;44859;51.934;15.554;2023-09-19T01:40:16;10.90;;;3.90;;
59072;SDS011;44859;51.934;15.554;2023-09-19T01:43:03;8.60;;;4.10;;
59072;SDS011;44859;51.934;15.554;2023-09-19T01:49:05;6.20;;;3.10;;
59072;SDS011;44859;51.934;15.554;2023-09-19T01:52:11;8.20;;;3.10;;
59072;SDS011;44859;51.934;15.554;2023-09-19T01:55:15;5.20;;;2.90;;
59072;SDS011;44859;51.934;15.554;2023-09-19T02:01:22;7.00;;;3.00;;
59072;SDS011;44859;51.934;15.554;2023-09-19T02:03:54;9.30;;;3.20;;
59072;SDS011;44859;51.934;15.554;2023-09-19T02:06:23;5.70;;;2.90;;
59072;SDS011;44859;51.934;15.554;2023-09-19T02:09:05;10.40;;;4.60;;
59072;SDS011;44859;51.934;15.554;2023-09-19T02:12:11;9.20;;;4.00;;
59072;SDS011;44859;51.934;15.554;2023-09-19T02:14:53;7.00;;;3.10;;
59072;SDS011;44859;51.934;15.554;2023-09-19T02:17:51;6.70;;;2.90;;
59072;SDS011;44859;51.934;15.554;2023-09-19T02:20:23;6.20;;;3.00;;
59072;SDS011;44859;51.934;15.554;2023-09-19T02:23:16;7.00;;;2.80;;
59072;SDS011;44859;51.934;15.554;2023-09-19T02:28:57;6.60;;;2.80;;
59072;SDS011;44859;51.934;15.554;2023-09-19T02:31:51;7.60;;;3.10;;
59072;SDS011;44859;51.934;15.554;2023-09-19T02:34:44;6.00;;;3.10;;
59072;SDS011;44859;51.934;15.554;2023-09-19T02:37:22;7.70;;;3.20;;
59072;SDS011;44859;51.934;15.554;2023-09-19T02:39:58;9.30;;;3.40;;
59072;SDS011;44859;51.934;15.554;2023-09-19T02:42:35;6.60;;;3.00;;
59072;SDS011;44859;51.934;15.554;2023-09-19T02:45:12;7.90;;;3.30;;
59072;SDS011;44859;51.934;15.554;2023-09-19T02:47:55;11.70;;;4.90;;
59072;SDS011;44859;51.934;15.554;2023-09-19T02:56:30;8.20;;;3.20;;
59072;SDS011;44859;51.934;15.554;2023-09-19T02:59:11;7.90;;;3.30;;
59072;SDS011;44859;51.934;15.554;2023-09-19T03:01:53;7.70;;;3.30;;
59072;SDS011;44859;51.934;15.554;2023-09-19T03:07:31;11.80;;;3.50;;
59072;SDS011;44859;51.934;15.554;2023-09-19T03:10:07;8.30;;;3.60;;
59072;SDS011;44859;51.934;15.554;2023-09-19T03:12:57;8.80;;;3.80;;
59072;SDS011;44859;51.934;15.554;2023-09-19T03:15:34;8.20;;;3.60;;
59072;SDS011;44859;51.934;15.554;2023-09-19T03:18:23;8.10;;;3.50;;
59072;SDS011;44859;51.934;15.554;2023-09-19T03:20:56;8.90;;;3.30;;
59072;SDS011;44859;51.934;15.554;2023-09-19T03:23:30;11.30;;;3.50;;
59072;SDS011;44859;51.934;15.554;2023-09-19T03:26:00;7.20;;;3.30;;
59072;SDS011;44859;51.934;15.554;2023-09-19T03:28:42;7.90;;;3.40;;
59072;SDS011;44859;51.934;15.554;2023-09-19T03:31:41;7.40;;;3.60;;
59072;SDS011;44859;51.934;15.554;2023-09-19T03:34:18;7.80;;;3.20;;
59072;SDS011;44859;51.934;15.554;2023-09-19T03:37:15;8.90;;;3.90;;
59072;SDS011;44859;51.934;15.554;2023-09-19T03:40:25;8.10;;;3.10;;
59072;SDS011;44859;51.934;15.554;2023-09-19T03:43:17;8.80;;;3.50;;
59072;SDS011;44859;51.934;15.554;2023-09-19T03:46:24;10.00;;;3.80;;
59072;SDS011;44859;51.934;15.554;2023-09-19T03:49:29;10.00;;;3.90;;
59072;SDS011;44859;51.934;15.554;2023-09-19T03:52:11;7.90;;;3.70;;
59072;SDS011;44859;51.934;15.554;2023-09-19T03:54:49;7.50;;;3.90;;
59072;SDS011;44859;51.934;15.554;2023-09-19T03:57:51;8.60;;;3.90;;
59072;SDS011;44859;51.934;15.554;2023-09-19T04:00:28;9.40;;;3.50;;
59072;SDS011;44859;51.934;15.554;2023-09-19T04:03:12;9.40;;;4.10;;
59072;SDS011;44859;51.934;15.554;2023-09-19T04:05:50;7.40;;;3.20;;
59072;SDS011;44859;51.934;15.554;2023-09-19T04:08:23;6.80;;;2.90;;
59072;SDS011;44859;51.934;15.554;2023-09-19T04:11:14;9.80;;;3.60;;
59072;SDS011;44859;51.934;15.554;2023-09-19T04:14:13;7.00;;;3.00;;
59072;SDS011;44859;51.934;15.554;2023-09-19T04:23:27;10.50;;;3.50;;
59072;SDS011;44859;51.934;15.554;2023-09-19T04:26:23;7.50;;;3.30;;
59072;SDS011;44859;51.934;15.554;2023-09-19T04:29:16;7.80;;;3.20;;
59072;SDS011;44859;51.934;15.554;2023-09-19T04:32:11;7.30;;;3.20;;
59072;SDS011;44859;51.934;15.554;2023-09-19T04:38:33;6.60;;;3.00;;
59072;SDS011;44859;51.934;15.554;2023-09-19T04:41:22;8.90;;;3.90;;
59072;SDS011;44859;51.934;15.554;2023-09-19T04:47:08;8.70;;;3.60;;
59072;SDS011;44859;51.934;15.554;2023-09-19T04:49:41;6.40;;;3.10;;
59072;SDS011;44859;51.934;15.554;2023-09-19T04:52:17;6.40;;;3.20;;
59072;SDS011;44859;51.934;15.554;2023-09-19T04:58:44;7.00;;;3.50;;
59072;SDS011;44859;51.934;15.554;2023-09-19T05:05:23;8.10;;;3.00;;
59072;SDS011;44859;51.934;15.554;2023-09-19T05:08:12;7.90;;;3.20;;
59072;SDS011;44859;51.934;15.554;2023-09-19T05:10:56;8.60;;;3.40;;
59072;SDS011;44859;51.934;15.554;2023-09-19T05:16:21;8.90;;;3.40;;
59072;SDS011;44859;51.934;15.554;2023-09-19T05:19:01;10.10;;;3.20;;
59072;SDS011;44859;51.934;15.554;2023-09-19T05:21:50;8.60;;;3.30;;
59072;SDS011;44859;51.934;15.554;2023-09-19T05:24:39;8.40;;;3.30;;
59072;SDS011;44859;51.934;15.554;2023-09-19T05:27:43;8.10;;;3.70;;
59072;SDS011;44859;51.934;15.554;2023-09-19T05:30:33;8.40;;;3.30;;
59072;SDS011;44859;51.934;15.554;2023-09-19T05:33:04;7.10;;;3.20;;
59072;SDS011;44859;51.934;15.554;2023-09-19T05:36:20;8.20;;;3.20;;
59072;SDS011;44859;51.934;15.554;2023-09-19T05:38:50;7.90;;;3.40;;
59072;SDS011;44859;51.934;15.554;2023-09-19T05:41:29;7.30;;;3.20;;
59072;SDS011;44859;51.934;15.554;2023-09-19T05:44:09;6.40;;;3.20;;
59072;SDS011;44859;51.934;15.554;2023-09-19T05:46:45;10.40;;;4.20;;
59072;SDS011;44859;51.934;15.554;2023-09-19T05:49:47;5.10;;;3.00;;
59072;SDS011;44859;51.934;15.554;2023-09-19T05:52:22;7.00;;;3.40;;
59072;SDS011;44859;51.934;15.554;2023-09-19T05:54:50;8.80;;;3.40;;
59072;SDS011;44859;51.934;15.554;2023-09-19T05:57:23;8.70;;;3.40;;
59072;SDS011;44859;51.934;15.554;2023-09-19T06:14:49;8.90;;;3.20;;
59072;SDS011;44859;51.934;15.554;2023-09-19T06:17:44;7.70;;;3.80;;
59072;SDS011;44859;51.934;15.554;2023-09-19T06:20:39;10.00;;;4.40;;
59072;SDS011;44859;51.934;15.554;2023-09-19T06:23:44;9.50;;;3.70;;
59072;SDS011;44859;51.934;15.554;2023-09-19T06:26:38;11.00;;;5.20;;
59072;SDS011;44859;51.934;15.554;2023-09-19T06:32:35;6.00;;;3.20;;
59072;SDS011;44859;51.934;15.554;2023-09-19T06:35:44;7.50;;;3.20;;
59072;SDS011;44859;51.934;15.554;2023-09-19T06:45:05;11.20;;;4.20;;
59072;SDS011;44859;51.934;15.554;2023-09-19T06:48:15;8.10;;;4.10;;
59072;SDS011;44859;51.934;15.554;2023-09-19T06:50:49;9.50;;;3.10;;
59072;SDS011;44859;51.934;15.554;2023-09-19T06:53:48;8.30;;;3.40;;
59072;SDS011;44859;51.934;15.554;2023-09-19T06:57:22;7.10;;;3.10;;
59072;SDS011;44859;51.934;15.554;2023-09-19T07:00:01;5.90;;;3.00;;
59072;SDS011;44859;51.934;15.554;2023-09-19T07:03:28;8.50;;;3.40;;
59072;SDS011;44859;51.934;15.554;2023-09-19T07:06:23;9.80;;;3.50;;
59072;SDS011;44859;51.934;15.554;2023-09-19T07:09:44;6.40;;;3.20;;
59072;SDS011;44859;51.934;15.554;2023-09-19T07:16:02;7.30;;;2.90;;
59072;SDS011;44859;51.934;15.554;2023-09-19T07:19:15;10.00;;;3.70;;
59072;SDS011;44859;51.934;15.554;2023-09-19T07:22:13;7.90;;;3.20;;
59072;SDS011;44859;51.934;15.554;2023-09-19T07:25:25;6.50;;;3.20;;
59072;SDS011;44859;51.934;15.554;2023-09-19T07:35:06;6.70;;;3.00;;
59072;SDS011;44859;51.934;15.554;2023-09-19T07:37:35;8.40;;;3.20;;
59072;SDS011;44859;51.934;15.554;2023-09-19T07:40:59;7.30;;;3.00;;
59072;SDS011;44859;51.934;15.554;2023-09-19T07:44:24;6.60;;;2.80;;
59072;SDS011;44859;51.934;15.554;2023-09-19T07:47:10;9.50;;;2.80;;
59072;SDS011;44859;51.934;15.554;2023-09-19T07:50:05;5.50;;;3.10;;
59072;SDS011;44859;51.934;15.554;2023-09-19T07:57:01;6.50;;;3.30;;
59072;SDS011;44859;51.934;15.554;2023-09-19T08:00:06;8.60;;;3.20;;
59072;SDS011;44859;51.934;15.554;2023-09-19T08:03:05;7.80;;;3.00;;
59072;SDS011;44859;51.934;15.554;2023-09-19T08:06:07;11.70;;;5.10;;
59072;SDS011;44859;51.934;15.554;2023-09-19T08:09:22;8.20;;;3.30;;
59072;SDS011;44859;51.934;15.554;2023-09-19T08:12:42;6.20;;;2.90;;
59072;SDS011;44859;51.934;15.554;2023-09-19T08:15:33;6.90;;;3.00;;
59072;SDS011;44859;51.934;15.554;2023-09-19T08:18:08;7.10;;;3.20;;
59072;SDS011;44859;51.934;15.554;2023-09-19T08:21:04;7.30;;;3.00;;
59072;SDS011;44859;51.934;15.554;2023-09-19T08:24:31;6.70;;;2.80;;
59072;SDS011;44859;51.934;15.554;2023-09-19T08:27:23;6.70;;;3.00;;
59072;SDS011;44859;51.934;15.554;2023-09-19T08:30:21;7.60;;;2.80;;
59072;SDS011;44859;51.934;15.554;2023-09-19T08:33:18;6.20;;;2.70;;
59072;SDS011;44859;51.934;15.554;2023-09-19T08:36:30;6.30;;;2.70;;
59072;SDS011;44859;51.934;15.554;2023-09-19T08:39:41;5.50;;;2.60;;
59072;SDS011;44859;51.934;15.554;2023-09-19T08:53:09;5.50;;;2.60;;
59072;SDS011;44859;51.934;15.554;2023-09-19T09:03:23;6.10;;;2.70;;
59072;SDS011;44859;51.934;15.554;2023-09-19T09:06:46;6.90;;;2.50;;
59072;SDS011;44859;51.934;15.554;2023-09-19T09:09:42;5.00;;;2.60;;
59072;SDS011;44859;51.934;15.554;2023-09-19T09:12:16;11.40;;;4.70;;
59072;SDS011;44859;51.934;15.554;2023-09-19T09:14:47;5.60;;;2.70;;
59072;SDS011;44859;51.934;15.554;2023-09-19T09:17:42;5.90;;;2.80;;
59072;SDS011;44859;51.934;15.554;2023-09-19T09:20:31;6.10;;;2.70;;
59072;SDS011;44859;51.934;15.554;2023-09-19T09:23:10;7.60;;;3.10;;
59072;SDS011;44859;51.934;15.554;2023-09-19T09:25:53;7.60;;;2.90;;
59072;SDS011;44859;51.934;15.554;2023-09-19T09:28:45;6.00;;;2.80;;
59072;SDS011;44859;51.934;15.554;2023-09-19T09:31:25;6.60;;;3.10;;
59072;SDS011;44859;51.934;15.554;2023-09-19T09:34:25;9.60;;;4.30;;
59072;SDS011;44859;51.934;15.554;2023-09-19T09:37:23;7.10;;;2.60;;
59072;SDS011;44859;51.934;15.554;2023-09-19T09:43:02;6.30;;;3.00;;
59072;SDS011;44859;51.934;15.554;2023-09-19T09:49:49;6.00;;;2.50;;
59072;SDS011;44859;51.934;15.554;2023-09-19T09:59:15;6.20;;;2.80;;
59072;SDS011;44859;51.934;15.554;2023-09-19T10:01:51;6.90;;;2.80;;
59072;SDS011;44859;51.934;15.554;2023-09-19T10:04:52;8.00;;;3.30;;
59072;SDS011;44859;51.934;15.554;2023-09-19T10:07:57;5.10;;;2.80;;
59072;SDS011;44859;51.934;15.554;2023-09-19T10:10:46;6.00;;;3.00;;
59072;SDS011;44859;51.934;15.554;2023-09-19T10:13:29;7.40;;;2.70;;
59072;SDS011;44859;51.934;15.554;2023-09-19T10:16:21;8.50;;;3.10;;
59072;SDS011;44859;51.934;15.554;2023-09-19T10:19:11;3.60;;;2.60;;
59072;SDS011;44859;51.934;15.554;2023-09-19T10:25:13;5.60;;;2.80;;
59072;SDS011;44859;51.934;15.554;2023-09-19T10:27:46;5.60;;;2.60;;
59072;SDS011;44859;51.934;15.554;2023-09-19T10:30:28;4.50;;;2.50;;
59072;SDS011;44859;51.934;15.554;2023-09-19T10:33:01;5.80;;;2.60;;
59072;SDS011;44859;51.934;15.554;2023-09-19T10:35:32;6.30;;;2.60;;
59072;SDS011;44859;51.934;15.554;2023-09-19T10:38:50;3.90;;;2.10;;
59072;SDS011;44859;51.934;15.554;2023-09-19T10:41:36;5.20;;;2.10;;
59072;SDS011;44859;51.934;15.554;2023-09-19T10:44:10;4.00;;;2.20;;
59072;SDS011;44859;51.934;15.554;2023-09-19T10:46:47;4.60;;;2.30;;
59072;SDS011;44859;51.934;15.554;2023-09-19T10:49:24;4.50;;;2.20;;
59072;SDS011;44859;51.934;15.554;2023-09-19T10:51:55;5.90;;;2.40;;
59072;SDS011;44859;51.934;15.554;2023-09-19T10:54:43;4.40;;;2.00;;
59072;SDS011;44859;51.934;15.554;2023-09-19T10:57:29;5.70;;;2.20;;
59072;SDS011;44859;51.934;15.554;2023-09-19T11:00:10;5.20;;;2.10;;
59072;SDS011;44859;51.934;15.554;2023-09-19T11:06:18;2.80;;;1.70;;
59072;SDS011;44859;51.934;15.554;2023-09-19T11:09:02;2.90;;;1.90;;
59072;SDS011;44859;51.934;15.554;2023-09-19T11:14:39;2.50;;;1.90;;
59072;SDS011;44859;51.934;15.554;2023-09-19T11:28:33;3.10;;;1.90;;
59072;SDS011;44859;51.934;15.554;2023-09-19T11:34:54;3.90;;;1.80;;
59072;SDS011;44859;51.934;15.554;2023-09-19T11:37:59;4.20;;;2.20;;
59072;SDS011;44859;51.934;15.554;2023-09-19T11:40:11;4.00;;;1.80;;
59072;SDS011;44859;51.934;15.554;2023-09-19T11:42:55;5.40;;;1.90;;
59072;SDS011;44859;51.934;15.554;2023-09-19T11:48:43;2.40;;;1.70;;
59072;SDS011;44859;51.934;15.554;2023-09-19T11:51:23;4.40;;;1.80;;
59072;SDS011;44859;51.934;15.554;2023-09-19T11:53:57;6.10;;;2.00;;
59072;SDS011;44859;51.934;15.554;2023-09-19T11:56:44;3.20;;;1.80;;
59072;SDS011;44859;51.934;15.554;2023-09-19T11:59:22;5.40;;;2.00;;
59072;SDS011;44859;51.934;15.554;2023-09-19T12:02:08;5.30;;;1.90;;
59072;SDS011;44859;51.934;15.554;2023-09-19T12:04:45;3.90;;;1.80;;
59072;SDS011;44859;51.934;15.554;2023-09-19T12:07:25;3.80;;;2.00;;
59072;SDS011;44859;51.934;15.554;2023-09-19T12:10:07;11.80;;;8.10;;
59072;SDS011;44859;51.934;15.554;2023-09-19T12:12:45;6.60;;;3.20;;
59072;SDS011;44859;51.934;15.554;2023-09-19T12:18:08;4.00;;;2.00;;
59072;SDS011;44859;51.934;15.554;2023-09-19T12:21:02;3.50;;;1.70;;
59072;SDS011;44859;51.934;15.554;2023-09-19T12:23:44;2.80;;;2.00;;
59072;SDS011;44859;51.934;15.554;2023-09-19T12:26:18;4.90;;;1.90;;
59072;SDS011;44859;51.934;15.554;2023-09-19T12:28:52;3.20;;;1.70;;
59072;SDS011;44859;51.934;15.554;2023-09-19T12:31:24;3.00;;;1.80;;
59072;SDS011;44859;51.934;15.554;2023-09-19T12:33:58;3.70;;;2.00;;
59072;SDS011;44859;51.934;15.554;2023-09-19T12:36:31;5.20;;;1.80;;
59072;SDS011;44859;51.934;15.554;2023-09-19T12:39:11;2.70;;;2.00;;
59072;SDS011;44859;51.934;15.554;2023-09-19T12:41:42;3.40;;;2.10;;
59072;SDS011;44859;51.934;15.554;2023-09-19T12:44:25;4.10;;;2.10;;
59072;SDS011;44859;51.934;15.554;2023-09-19T12:47:16;4.50;;;2.00;;
59072;SDS011;44859;51.934;15.554;2023-09-19T12:50:13;6.30;;;2.30;;
59072;SDS011;44859;51.934;15.554;2023-09-19T12:52:50;6.30;;;3.30;;
59072;SDS011;44859;51.934;15.554;2023-09-19T12:55:39;5.30;;;2.20;;
59072;SDS011;44859;51.934;15.554;2023-09-19T12:58:24;3.00;;;2.00;;
59072;SDS011;44859;51.934;15.554;2023-09-19T13:01:01;3.90;;;2.10;;
59072;SDS011;44859;51.934;15.554;2023-09-19T13:03:50;4.40;;;2.30;;
59072;SDS011;44859;51.934;15.554;2023-09-19T13:06:51;4.50;;;2.10;;
59072;SDS011;44859;51.934;15.554;2023-09-19T13:09:32;5.10;;;2.20;;
59072;SDS011;44859;51.934;15.554;2023-09-19T13:12:56;2.70;;;1.70;;
59072;SDS011;44859;51.934;15.554;2023-09-19T13:15:14;3.00;;;2.00;;
59072;SDS011;44859;51.934;15.554;2023-09-19T13:17:55;4.10;;;2.40;;
59072;SDS011;44859;51.934;15.554;2023-09-19T13:20:40;9.00;;;3.90;;
59072;SDS011;44859;51.934;15.554;2023-09-19T13:23:28;5.70;;;2.20;;
59072;SDS011;44859;51.934;15.554;2023-09-19T13:26:05;6.10;;;2.60;;
59072;SDS011;44859;51.934;15.554;2023-09-19T13:28:46;5.90;;;2.50;;
59072;SDS011;44859;51.934;15.554;2023-09-19T13:31:41;4.90;;;2.40;;
59072;SDS011;44859;51.934;15.554;2023-09-19T13:34:18;5.20;;;2.50;;
59072;SDS011;44859;51.934;15.554;2023-09-19T13:36:59;4.40;;;2.40;;
59072;SDS011;44859;51.934;15.554;2023-09-19T13:39:32;4.60;;;2.30;;
59072;SDS011;44859;51.934;15.554;2023-09-19T13:42:08;5.80;;;2.50;;
59072;SDS011;44859;51.934;15.554;2023-09-19T13:44:39;5.20;;;2.20;;
59072;SDS011;44859;51.934;15.554;2023-09-19T13:47:27;5.00;;;2.30;;
59072;SDS011;44859;51.934;15.554;2023-09-19T13:50:06;5.20;;;2.30;;
59072;SDS011;44859;51.934;15.554;2023-09-19T13:52:51;5.10;;;2.30;;
59072;SDS011;44859;51.934;15.554;2023-09-19T13:55:31;5.50;;;2.40;;
59072;SDS011;44859;51.934;15.554;2023-09-19T13:58:01;9.40;;;4.20;;
59072;SDS011;44859;51.934;15.554;2023-09-19T14:00:39;7.20;;;2.90;;
59072;SDS011;44859;51.934;15.554;2023-09-19T14:03:11;5.90;;;2.70;;
59072;SDS011;44859;51.934;15.554;2023-09-19T14:05:47;7.20;;;2.80;;
59072;SDS011;44859;51.934;15.554;2023-09-19T14:08:21;5.40;;;2.50;;
59072;SDS011;44859;51.934;15.554;2023-09-19T14:10:54;6.10;;;2.40;;
59072;SDS011;44859;51.934;15.554;2023-09-19T14:13:23;5.00;;;2.40;;
59072;SDS011;44859;51.934;15.554;2023-09-19T14:15:55;9.30;;;2.50;;
59072;SDS011;44859;51.934;15.554;2023-09-19T14:18:25;8.50;;;2.60;;
59072;SDS011;44859;51.934;15.554;2023-09-19T14:21:02;20.70;;;5.20;;
59072;SDS011;44859;51.934;15.554;2023-09-19T14:23:36;6.90;;;2.60;;
59072;SDS011;44859;51.934;15.554;2023-09-19T14:26:18;5.30;;;2.30;;
59072;SDS011;44859;51.934;15.554;2023-09-19T14:28:51;7.20;;;2.40;;
59072;SDS011;44859;51.934;15.554;2023-09-19T14:31:44;5.40;;;2.00;;
59072;SDS011;44859;51.934;15.554;2023-09-19T14:34:27;5.80;;;2.20;;
59072;SDS011;44859;51.934;15.554;2023-09-19T14:36:57;5.20;;;2.20;;
59072;SDS011;44859;51.934;15.554;2023-09-19T14:39:40;5.70;;;2.20;;
59072;SDS011;44859;51.934;15.554;2023-09-19T14:42:19;5.40;;;2.50;;
59072;SDS011;44859;51.934;15.554;2023-09-19T14:45:04;6.00;;;2.60;;
59072;SDS011;44859;51.934;15.554;2023-09-19T14:47:47;6.70;;;2.20;;
59072;SDS011;44859;51.934;15.554;2023-09-19T14:50:23;9.70;;;4.30;;
59072;SDS011;44859;51.934;15.554;2023-09-19T14:53:04;6.00;;;2.50;;
59072;SDS011;44859;51.934;15.554;2023-09-19T14:55:37;6.00;;;2.20;;
59072;SDS011;44859;51.934;15.554;2023-09-19T14:58:24;6.50;;;2.30;;
59072;SDS011;44859;51.934;15.554;2023-09-19T15:04:12;6.90;;;2.10;;
59072;SDS011;44859;51.934;15.554;2023-09-19T15:06:57;5.10;;;2.30;;
59072;SDS011;44859;51.934;15.554;2023-09-19T15:09:28;7.20;;;2.30;;
59072;SDS011;44859;51.934;15.554;2023-09-19T15:12:00;6.20;;;2.40;;
59072;SDS011;44859;51.934;15.554;2023-09-19T15:15:00;7.80;;;3.10;;
59072;SDS011;44859;51.934;15.554;2023-09-19T15:18:01;5.00;;;2.00;;
59072;SDS011;44859;51.934;15.554;2023-09-19T15:20:36;6.80;;;2.50;;
59072;SDS011;44859;51.934;15.554;2023-09-19T15:23:18;5.90;;;2.50;;
59072;SDS011;44859;51.934;15.554;2023-09-19T15:26:08;6.90;;;2.60;;
59072;SDS011;44859;51.934;15.554;2023-09-19T15:28:56;6.60;;;2.40;;
59072;SDS011;44859;51.934;15.554;2023-09-19T15:34:21;5.80;;;2.20;;
59072;SDS011;44859;51.934;15.554;2023-09-19T15:37:08;6.30;;;2.50;;
59072;SDS011;44859;51.934;15.554;2023-09-19T15:39:40;5.60;;;2.00;;
59072;SDS011;44859;51.934;15.554;2023-09-19T15:42:26;8.00;;;3.50;;
59072;SDS011;44859;51.934;15.554;2023-09-19T15:45:20;7.00;;;2.70;;
59072;SDS011;44859;51.934;15.554;2023-09-19T15:50:55;5.60;;;2.20;;
59072;SDS011;44859;51.934;15.554;2023-09-19T15:54:10;4.90;;;2.10;;
59072;SDS011;44859;51.934;15.554;2023-09-19T15:56:55;7.20;;;2.20;;
59072;SDS011;44859;51.934;15.554;2023-09-19T15:59:32;6.20;;;2.10;;
59072;SDS011;44859;51.934;15.554;2023-09-19T16:02:09;4.00;;;2.00;;
59072;SDS011;44859;51.934;15.554;2023-09-19T16:04:44;8.30;;;2.70;;
59072;SDS011;44859;51.934;15.554;2023-09-19T16:07:44;5.30;;;2.00;;
59072;SDS011;44859;51.934;15.554;2023-09-19T16:10:19;5.30;;;2.20;;
59072;SDS011;44859;51.934;15.554;2023-09-19T16:12:53;6.60;;;2.10;;
59072;SDS011;44859;51.934;15.554;2023-09-19T16:15:32;7.60;;;2.20;;
59072;SDS011;44859;51.934;15.554;2023-09-19T16:18:11;6.00;;;2.30;;
59072;SDS011;44859;51.934;15.554;2023-09-19T16:20:46;8.20;;;2.60;;
59072;SDS011;44859;51.934;15.554;2023-09-19T16:23:23;6.40;;;2.90;;
59072;SDS011;44859;51.934;15.554;2023-09-19T16:26:18;7.30;;;2.20;;
59072;SDS011;44859;51.934;15.554;2023-09-19T16:31:40;5.40;;;2.40;;
59072;SDS011;44859;51.934;15.554;2023-09-19T16:34:20;6.10;;;2.50;;
59072;SDS011;44859;51.934;15.554;2023-09-19T16:37:14;5.40;;;2.20;;
59072;SDS011;44859;51.934;15.554;2023-09-19T16:40:11;6.70;;;2.50;;
59072;SDS011;44859;51.934;15.554;2023-09-19T16:43:06;6.50;;;2.50;;
59072;SDS011;44859;51.934;15.554;2023-09-19T16:45:59;5.20;;;2.00;;
59072;SDS011;44859;51.934;15.554;2023-09-19T16:48:42;6.30;;;2.30;;
59072;SDS011;44859;51.934;15.554;2023-09-19T16:51:36;7.20;;;2.50;;
59072;SDS011;44859;51.934;15.554;2023-09-19T16:54:18;6.10;;;2.30;;
59072;SDS011;44859;51.934;15.554;2023-09-19T16:57:25;6.10;;;2.50;;
59072;SDS011;44859;51.934;15.554;2023-09-19T17:00:10;7.40;;;3.40;;
59072;SDS011;44859;51.934;15.554;2023-09-19T17:02:51;5.90;;;2.70;;
59072;SDS011;44859;51.934;15.554;2023-09-19T17:05:51;6.50;;;2.20;;
59072;SDS011;44859;51.934;15.554;2023-09-19T17:08:39;6.40;;;2.30;;
59072;SDS011;44859;51.934;15.554;2023-09-19T17:11:30;5.60;;;2.20;;
59072;SDS011;44859;51.934;15.554;2023-09-19T17:15:23;5.90;;;2.30;;
59072;SDS011;44859;51.934;15.554;2023-09-19T17:18:14;4.40;;;2.10;;
59072;SDS011;44859;51.934;15.554;2023-09-19T17:20:52;5.90;;;2.50;;
59072;SDS011;44859;51.934;15.554;2023-09-19T17:26:42;7.90;;;2.40;;
59072;SDS011;44859;51.934;15.554;2023-09-19T17:29:15;7.10;;;2.30;;
59072;SDS011;44859;51.934;15.554;2023-09-19T17:32:04;5.90;;;2.40;;
59072;SDS011;44859;51.934;15.554;2023-09-19T17:35:18;7.10;;;2.40;;
59072;SDS011;44859;51.934;15.554;2023-09-19T17:37:51;4.90;;;2.30;;
59072;SDS011;44859;51.934;15.554;2023-09-19T17:40:25;6.30;;;2.20;;
59072;SDS011;44859;51.934;15.554;2023-09-19T17:46:20;9.00;;;2.40;;
59072;SDS011;44859;51.934;15.554;2023-09-19T17:49:19;6.60;;;2.60;;
59072;SDS011;44859;51.934;15.554;2023-09-19T17:52:06;5.60;;;2.70;;
59072;SDS011;44859;51.934;15.554;2023-09-19T17:54:49;8.80;;;2.70;;
59072;SDS011;44859;51.934;15.554;2023-09-19T17:57:36;8.80;;;2.80;;
59072;SDS011;44859;51.934;15.554;2023-09-19T18:00:16;6.00;;;2.30;;
59072;SDS011;44859;51.934;15.554;2023-09-19T18:03:18;5.90;;;2.30;;
59072;SDS011;44859;51.934;15.554;2023-09-19T18:05:51;5.70;;;2.50;;
59072;SDS011;44859;51.934;15.554;2023-09-19T18:11:11;7.10;;;2.50;;
59072;SDS011;44859;51.934;15.554;2023-09-19T18:13:56;6.70;;;3.00;;
59072;SDS011;44859;51.934;15.554;2023-09-19T18:17:12;7.30;;;3.10;;
59072;SDS011;44859;51.934;15.554;2023-09-19T18:20:36;5.40;;;2.20;;
59072;SDS011;44859;51.934;15.554;2023-09-19T18:23:13;7.50;;;2.60;;
59072;SDS011;44859;51.934;15.554;2023-09-19T18:25:57;7.50;;;2.70;;
59072;SDS011;44859;51.934;15.554;2023-09-19T18:28:58;7.90;;;2.60;;
59072;SDS011;44859;51.934;15.554;2023-09-19T18:32:01;5.40;;;2.30;;
59072;SDS011;44859;51.934;15.554;2023-09-19T18:35:16;8.80;;;3.60;;
59072;SDS011;44859;51.934;15.554;2023-09-19T18:39:04;9.30;;;3.30;;
59072;SDS011;44859;51.934;15.554;2023-09-19T18:42:20;7.10;;;3.00;;
59072;SDS011;44859;51.934;15.554;2023-09-19T18:45:06;6.40;;;3.20;;
59072;SDS011;44859;51.934;15.554;2023-09-19T18:48:00;9.40;;;3.90;;
59072;SDS011;44859;51.934;15.554;2023-09-19T18:51:03;6.80;;;3.20;;
59072;SDS011;44859;51.934;15.554;2023-09-19T18:53:40;8.10;;;3.00;;
59072;SDS011;44859;51.934;15.554;2023-09-19T18:56:43;7.00;;;3.20;;
59072;SDS011;44859;51.934;15.554;2023-09-19T18:59:35;7.40;;;2.90;;
59072;SDS011;44859;51.934;15.554;2023-09-19T19:02:24;6.50;;;2.90;;
59072;SDS011;44859;51.934;15.554;2023-09-19T19:08:00;6.80;;;3.20;;
59072;SDS011;44859;51.934;15.554;2023-09-19T19:10:58;9.30;;;3.70;;
59072;SDS011;44859;51.934;15.554;2023-09-19T19:14:06;8.60;;;3.80;;
59072;SDS011;44859;51.934;15.554;2023-09-19T19:20:55;9.70;;;2.80;;
59072;SDS011;44859;51.934;15.554;2023-09-19T19:24:16;12.50;;;4.90;;
59072;SDS011;44859;51.934;15.554;2023-09-19T19:27:01;11.70;;;4.80;;
59072;SDS011;44859;51.934;15.554;2023-09-19T19:30:15;9.30;;;3.50;;
59072;SDS011;44859;51.934;15.554;2023-09-19T19:42:23;7.20;;;3.50;;
59072;SDS011;44859;51.934;15.554;2023-09-19T19:45:05;11.20;;;3.20;;
59072;SDS011;44859;51.934;15.554;2023-09-19T19:47:54;11.70;;;4.00;;
59072;SDS011;44859;51.934;15.554;2023-09-19T19:50:57;12.30;;;4.90;;
59072;SDS011;44859;51.934;15.554;2023-09-19T19:54:01;8.80;;;3.30;;